createdAt,value
2023-01-29T00:00:39.737Z,69.15
2023-01-29T00:03:12.038Z,68.27
2023-01-29T00:05:44.229Z,68.14
2023-01-29T00:08:16.241Z,68.14
2023-01-29T00:10:48.313Z,68.69
2023-01-29T00:13:20.695Z,69.30
2023-01-29T00:16:00.138Z,69.17
2023-01-29T00:18:32.459Z,69.29
2023-01-29T00:21:04.914Z,69.68
2023-01-29T00:23:37.179Z,69.59
2023-01-29T00:26:09.919Z,69.81
2023-01-29T00:28:42.551Z,70.37
2023-01-29T00:31:23.092Z,70.64
2023-01-29T00:33:55.310Z,70.49
2023-01-29T00:36:28.328Z,70.50
2023-01-29T00:39:02.935Z,70.34
2023-01-29T00:41:52.646Z,69.78
2023-01-29T00:44:42.703Z,69.69
2023-01-29T00:47:16.474Z,69.14
2023-01-29T00:49:48.874Z,68.37
2023-01-29T00:52:26.881Z,68.40
2023-01-29T00:55:01.103Z,68.59
2023-01-29T00:57:35.249Z,68.57
2023-01-29T01:00:10.462Z,68.70
2023-01-29T01:03:00.006Z,68.20
2023-01-29T01:05:32.295Z,68.19
2023-01-29T01:08:04.577Z,68.21
2023-01-29T01:10:36.943Z,68.31
2023-01-29T01:13:09.753Z,68.04
2023-01-29T01:15:43.260Z,68.50
2023-01-29T01:18:16.256Z,68.22
2023-01-29T01:20:49.895Z,68.31
2023-01-29T01:23:21.997Z,68.11
2023-01-29T01:25:54.775Z,68.07
2023-01-29T01:28:27.686Z,67.46
2023-01-29T01:31:01.119Z,67.43
2023-01-29T01:33:33.183Z,67.35
2023-01-29T01:36:07.750Z,67.12
2023-01-29T01:38:42.223Z,65.95
2023-01-29T01:41:17.081Z,66.17
2023-01-29T01:43:56.485Z,66.11
2023-01-29T01:46:34.216Z,66.32
2023-01-29T01:49:09.646Z,66.40
2023-01-29T01:51:45.755Z,65.39
2023-01-29T01:54:21.190Z,65.40
2023-01-29T01:56:56.460Z,64.63
2023-01-29T01:59:28.659Z,65.01
2023-01-29T02:02:18.867Z,64.53
2023-01-29T02:05:09.357Z,64.77
2023-01-29T02:08:02.511Z,64.70
2023-01-29T02:10:46.242Z,64.72
2023-01-29T02:13:18.916Z,64.93
2023-01-29T02:15:50.980Z,64.96
2023-01-29T02:18:23.571Z,65.04
2023-01-29T02:21:25.892Z,64.95
2023-01-29T02:24:33.057Z,64.93
2023-01-29T02:27:08.347Z,64.97
2023-01-29T02:29:52.133Z,64.81
2023-01-29T02:32:34.720Z,64.64
2023-01-29T02:35:29.164Z,64.59
2023-01-29T02:38:17.807Z,64.89
2023-01-29T02:40:55.475Z,64.76
2023-01-29T02:43:36.472Z,64.75
2023-01-29T02:46:35.230Z,64.74
2023-01-29T02:49:17.049Z,64.34
2023-01-29T02:51:55.105Z,64.65
2023-01-29T02:54:35.897Z,64.91
2023-01-29T02:57:23.043Z,64.86
2023-01-29T03:00:00.928Z,64.96
2023-01-29T03:02:45.888Z,64.94
2023-01-29T03:05:22.075Z,64.75
2023-01-29T03:07:58.765Z,64.38
2023-01-29T03:10:37.966Z,64.40
2023-01-29T03:13:13.089Z,64.21
2023-01-29T03:15:48.660Z,64.26
2023-01-29T03:18:29.977Z,64.45
2023-01-29T03:21:08.240Z,64.76
2023-01-29T03:23:58.331Z,65.16
2023-01-29T03:26:48.325Z,64.99
2023-01-29T03:29:39.499Z,65.15
2023-01-29T03:32:13.502Z,64.89
2023-01-29T03:34:46.442Z,64.98
2023-01-29T03:37:21.006Z,65.31
2023-01-29T03:39:53.732Z,64.60
2023-01-29T03:42:31.722Z,64.54
2023-01-29T03:45:18.458Z,64.60
2023-01-29T03:48:10.680Z,64.16
2023-01-29T03:50:57.543Z,64.05
2023-01-29T03:53:51.099Z,64.01
2023-01-29T03:56:34.989Z,64.00
2023-01-29T03:59:19.815Z,63.69
2023-01-29T04:02:14.429Z,63.86
2023-01-29T04:04:48.456Z,63.99
2023-01-29T04:07:24.874Z,64.11
2023-01-29T04:10:01.568Z,64.43
2023-01-29T04:12:44.546Z,63.84
2023-01-29T04:15:19.001Z,63.72
2023-01-29T04:17:53.929Z,63.77
2023-01-29T04:20:28.233Z,63.97
2023-01-29T04:23:00.353Z,64.05
2023-01-29T04:25:38.151Z,64.16
2023-01-29T04:28:22.340Z,64.13
2023-01-29T04:31:06.562Z,64.01
2023-01-29T04:33:53.309Z,64.01
2023-01-29T04:36:31.383Z,63.95
2023-01-29T04:39:17.242Z,63.76
2023-01-29T04:42:01.116Z,63.95
2023-01-29T04:44:41.980Z,64.04
2023-01-29T04:47:31.847Z,64.06
2023-01-29T04:50:16.598Z,64.00
2023-01-29T04:53:06.866Z,63.81
2023-01-29T04:55:57.000Z,64.01
2023-01-29T04:58:37.945Z,64.02
2023-01-29T05:01:13.153Z,64.05
2023-01-29T05:03:48.246Z,64.06
2023-01-29T05:06:21.959Z,63.94
2023-01-29T05:08:55.656Z,63.96
2023-01-29T05:11:27.786Z,63.95
2023-01-29T05:14:02.312Z,63.98
2023-01-29T05:16:38.871Z,63.58
2023-01-29T05:19:15.675Z,63.57
2023-01-29T05:21:50.882Z,63.57
2023-01-29T05:24:26.583Z,63.41
2023-01-29T05:27:17.172Z,63.14
2023-01-29T05:29:49.572Z,63.50
2023-01-29T05:32:21.661Z,63.54
2023-01-29T05:34:53.727Z,63.67
2023-01-29T05:37:25.858Z,63.50
2023-01-29T05:39:58.177Z,63.72
2023-01-29T05:42:30.656Z,63.69
2023-01-29T05:45:02.873Z,63.75
2023-01-29T05:47:34.883Z,63.41
2023-01-29T05:50:07.378Z,63.69
2023-01-29T05:52:39.578Z,63.62
2023-01-29T05:55:12.464Z,63.70
2023-01-29T05:57:44.840Z,63.36
2023-01-29T06:00:18.219Z,62.99
2023-01-29T06:02:50.678Z,63.05
2023-01-29T06:05:23.623Z,63.39
2023-01-29T06:07:56.381Z,63.51
2023-01-29T06:10:28.706Z,63.64
2023-01-29T06:13:01.670Z,63.70
2023-01-29T06:15:34.082Z,63.60
2023-01-29T06:18:06.621Z,63.46
2023-01-29T06:20:39.517Z,63.19
2023-01-29T06:23:11.780Z,62.63
2023-01-29T06:25:44.226Z,62.79
2023-01-29T06:28:16.966Z,62.43
2023-01-29T06:30:49.169Z,62.87
2023-01-29T06:33:21.341Z,63.24
2023-01-29T06:36:04.789Z,62.75
2023-01-29T06:38:37.221Z,63.07
2023-01-29T06:41:15.379Z,62.71
2023-01-29T06:43:48.514Z,62.52
2023-01-29T06:46:20.984Z,62.75
2023-01-29T06:48:52.969Z,62.44
2023-01-29T06:51:24.951Z,62.30
2023-01-29T06:53:57.114Z,61.86
2023-01-29T06:56:29.075Z,61.62
2023-01-29T06:59:01.650Z,61.53
2023-01-29T07:01:36.316Z,61.36
2023-01-29T07:04:07.784Z,61.67
2023-01-29T07:06:39.974Z,61.56
2023-01-29T07:09:17.142Z,61.47
2023-01-29T07:11:49.637Z,61.38
2023-01-29T07:14:22.085Z,61.12
2023-01-29T07:16:54.163Z,60.23
2023-01-29T07:19:26.456Z,59.74
2023-01-29T07:22:00.114Z,59.80
2023-01-29T07:24:32.424Z,59.22
2023-01-29T07:27:05.176Z,58.97
2023-01-29T07:29:37.353Z,59.14
2023-01-29T07:32:10.007Z,59.02
2023-01-29T07:34:42.835Z,59.10
2023-01-29T07:37:15.639Z,59.25
2023-01-29T07:39:48.375Z,59.30
2023-01-29T07:42:20.430Z,58.60
2023-01-29T07:44:52.909Z,58.63
2023-01-29T07:47:25.859Z,58.39
2023-01-29T07:49:58.619Z,58.30
2023-01-29T07:52:34.115Z,58.05
2023-01-29T07:55:07.019Z,58.25
2023-01-29T07:57:40.001Z,57.98
2023-01-29T08:00:15.171Z,57.68
2023-01-29T08:02:47.642Z,57.21
2023-01-29T08:05:21.276Z,57.14
2023-01-29T08:08:06.182Z,56.98
2023-01-29T08:10:30.210Z,56.65
2023-01-29T08:13:04.126Z,55.71
2023-01-29T08:15:38.919Z,55.03
2023-01-29T08:18:10.377Z,54.76
2023-01-29T08:20:43.247Z,54.54
2023-01-29T08:23:17.958Z,54.27
2023-01-29T08:25:50.701Z,54.63
2023-01-29T08:28:23.318Z,54.32
2023-01-29T08:30:56.028Z,54.55
2023-01-29T08:33:38.759Z,54.57
2023-01-29T08:36:02.954Z,54.79
2023-01-29T08:38:35.392Z,54.09
2023-01-29T08:41:08.715Z,54.98
2023-01-29T08:43:41.056Z,54.88
2023-01-29T08:46:13.259Z,54.67
2023-01-29T08:48:45.454Z,53.87
2023-01-29T08:51:17.893Z,54.00
2023-01-29T08:53:51.423Z,54.66
2023-01-29T08:56:23.833Z,54.63
2023-01-29T08:58:57.312Z,54.80
2023-01-29T09:01:30.406Z,54.55
2023-01-29T09:04:03.040Z,54.75
2023-01-29T09:06:35.815Z,54.79
2023-01-29T09:09:08.477Z,54.40
2023-01-29T09:11:41.386Z,54.55
2023-01-29T09:14:14.845Z,54.77
2023-01-29T09:16:46.966Z,54.59
2023-01-29T09:19:19.762Z,54.87
2023-01-29T09:21:52.713Z,55.42
2023-01-29T09:24:24.847Z,54.94
2023-01-29T09:26:57.757Z,55.18
2023-01-29T09:29:30.235Z,54.65
2023-01-29T09:32:02.308Z,55.05
2023-01-29T09:34:34.612Z,55.34
2023-01-29T09:37:06.830Z,54.93
2023-01-29T09:39:41.150Z,54.76
2023-01-29T09:42:21.659Z,54.53
2023-01-29T09:44:56.955Z,54.41
2023-01-29T09:47:31.023Z,54.79
2023-01-29T09:50:12.074Z,54.61
2023-01-29T09:53:02.030Z,54.66
2023-01-29T09:55:37.308Z,55.31
2023-01-29T09:58:15.694Z,55.50
2023-01-29T10:01:12.348Z,55.68
2023-01-29T10:03:56.290Z,55.66
2023-01-29T10:07:03.559Z,55.66
2023-01-29T10:09:50.579Z,55.61
2023-01-29T10:12:44.896Z,55.81
2023-01-29T10:15:31.632Z,55.68
2023-01-29T10:18:32.131Z,55.31
2023-01-29T10:21:19.315Z,55.50
2023-01-29T10:24:24.443Z,55.45
2023-01-29T10:26:56.536Z,55.60
2023-01-29T10:29:30.900Z,55.62
2023-01-29T10:32:06.501Z,54.90
2023-01-29T10:34:41.563Z,54.84
2023-01-29T10:37:16.900Z,55.01
2023-01-29T10:39:49.426Z,54.94
2023-01-29T10:42:39.248Z,54.97
2023-01-29T10:45:23.268Z,55.28
2023-01-29T10:48:13.887Z,54.88
2023-01-29T10:51:15.822Z,54.44
2023-01-29T10:54:12.122Z,54.69
2023-01-29T10:57:12.208Z,53.89
2023-01-29T11:00:09.712Z,53.48
2023-01-29T11:02:48.591Z,52.76
2023-01-29T11:05:29.589Z,53.50
2023-01-29T11:08:10.695Z,53.97
2023-01-29T11:10:48.436Z,53.30
2023-01-29T11:13:20.606Z,53.37
2023-01-29T11:15:54.674Z,52.59
2023-01-29T11:18:26.752Z,52.70
2023-01-29T11:21:05.118Z,52.54
2023-01-29T11:23:37.540Z,52.38
2023-01-29T11:26:12.803Z,53.21
2023-01-29T11:28:50.692Z,53.18
2023-01-29T11:31:39.899Z,53.46
2023-01-29T11:34:24.489Z,53.15
2023-01-29T11:37:03.205Z,53.35
2023-01-29T11:39:35.488Z,53.22
2023-01-29T11:42:11.016Z,52.63
2023-01-29T11:44:44.662Z,52.43
2023-01-29T11:47:20.051Z,52.77
2023-01-29T11:49:55.072Z,53.17
2023-01-29T11:52:30.216Z,53.32
2023-01-29T11:55:05.207Z,53.66
2023-01-29T11:57:42.700Z,53.32
2023-01-29T12:00:26.527Z,53.83
2023-01-29T12:03:07.764Z,53.80
2023-01-29T12:05:42.206Z,53.68
2023-01-29T12:08:21.738Z,53.80
2023-01-29T12:10:55.464Z,53.43
2023-01-29T12:13:29.400Z,53.37
2023-01-29T12:16:13.487Z,53.76
2023-01-29T12:18:48.528Z,53.61
2023-01-29T12:21:23.614Z,53.38
2023-01-29T12:24:07.387Z,54.00
2023-01-29T12:26:48.178Z,54.01
2023-01-29T12:29:29.103Z,54.26
2023-01-29T12:32:26.627Z,54.56
2023-01-29T12:35:07.138Z,55.23
2023-01-29T12:37:58.541Z,55.57
2023-01-29T12:40:36.654Z,55.80
2023-01-29T12:43:19.936Z,56.27
2023-01-29T12:45:55.599Z,56.58
2023-01-29T12:48:36.538Z,56.67
2023-01-29T12:51:14.966Z,58.30
2023-01-29T12:53:53.019Z,57.69
2023-01-29T12:56:37.306Z,57.67
2023-01-29T12:59:22.302Z,58.17
2023-01-29T13:01:58.281Z,58.41
2023-01-29T13:04:45.837Z,58.55
2023-01-29T13:07:23.259Z,58.78
2023-01-29T13:09:58.867Z,58.98
2023-01-29T13:12:32.399Z,58.86
2023-01-29T13:15:23.875Z,59.00
2023-01-29T13:18:02.449Z,59.21
2023-01-29T13:20:36.515Z,59.63
2023-01-29T13:23:23.614Z,59.56
2023-01-29T13:25:55.879Z,59.88
2023-01-29T13:28:29.441Z,59.68
2023-01-29T13:31:32.170Z,59.67
2023-01-29T13:34:13.230Z,59.47
2023-01-29T13:36:52.138Z,59.81
2023-01-29T13:39:30.220Z,59.73
2023-01-29T13:42:04.736Z,60.24
2023-01-29T13:44:39.696Z,60.54
2023-01-29T13:47:15.111Z,60.49
2023-01-29T13:49:49.881Z,60.82
2023-01-29T13:52:43.611Z,61.06
2023-01-29T13:55:21.825Z,61.33
2023-01-29T13:57:56.344Z,61.45
2023-01-29T14:00:40.313Z,61.18
2023-01-29T14:03:15.216Z,61.37
2023-01-29T14:06:01.746Z,61.22
2023-01-29T14:08:46.782Z,61.43
2023-01-29T14:11:22.438Z,61.48
2023-01-29T14:13:54.469Z,61.40
2023-01-29T14:16:30.191Z,61.95
2023-01-29T14:19:04.051Z,62.10
2023-01-29T14:21:39.396Z,62.02
2023-01-29T14:24:21.476Z,61.78
2023-01-29T14:26:56.287Z,61.71
2023-01-29T14:29:35.122Z,61.93
2023-01-29T14:32:14.692Z,62.49
2023-01-29T14:34:52.537Z,61.95
2023-01-29T14:37:27.765Z,61.54
2023-01-29T14:40:03.127Z,61.97
2023-01-29T14:42:53.315Z,62.15
2023-01-29T14:45:36.938Z,62.07
2023-01-29T14:48:14.892Z,61.91
2023-01-29T14:50:52.531Z,61.96
2023-01-29T14:53:46.964Z,61.85
2023-01-29T14:56:38.609Z,61.86
2023-01-29T14:59:16.413Z,62.13
2023-01-29T15:02:00.942Z,62.27
2023-01-29T15:04:36.102Z,62.21
2023-01-29T15:07:13.913Z,62.44
2023-01-29T15:09:57.261Z,62.63
2023-01-29T15:12:30.670Z,62.79
2023-01-29T15:15:05.678Z,63.02
2023-01-29T15:17:43.670Z,63.61
2023-01-29T15:20:35.506Z,63.83
2023-01-29T15:23:26.867Z,64.23
2023-01-29T15:26:04.674Z,64.60
2023-01-29T15:28:37.381Z,65.07
2023-01-29T15:31:13.490Z,65.75
2023-01-29T15:33:49.167Z,66.04
2023-01-29T15:36:30.091Z,66.40
2023-01-29T15:39:23.882Z,66.83
2023-01-29T15:42:20.591Z,67.31
2023-01-29T15:44:54.931Z,67.37
2023-01-29T15:47:30.110Z,67.74
2023-01-29T15:50:02.041Z,68.06
2023-01-29T15:52:36.374Z,68.36
2023-01-29T15:55:09.473Z,68.68
2023-01-29T15:57:43.877Z,68.65
2023-01-29T16:00:27.826Z,67.88
2023-01-29T16:03:06.534Z,68.59
2023-01-29T16:05:39.717Z,68.74
2023-01-29T16:08:15.394Z,69.21
2023-01-29T16:10:51.679Z,69.36
2023-01-29T16:13:35.459Z,69.77
2023-01-29T16:16:19.596Z,69.66
2023-01-29T16:18:59.897Z,69.68
2023-01-29T16:21:38.730Z,69.60
2023-01-29T16:24:17.523Z,70.17
2023-01-29T16:26:51.723Z,70.07
2023-01-29T16:29:27.196Z,70.57
2023-01-29T16:32:02.310Z,70.37
2023-01-29T16:34:43.679Z,70.53
2023-01-29T16:37:25.066Z,70.88
2023-01-29T16:39:57.951Z,70.73
2023-01-29T16:42:31.654Z,70.86
2023-01-29T16:45:05.572Z,70.89
2023-01-29T16:47:39.068Z,71.08
2023-01-29T16:50:27.099Z,70.48
2023-01-29T16:53:07.956Z,70.68
2023-01-29T16:55:43.741Z,70.51
2023-01-29T16:58:19.203Z,70.56
2023-01-29T17:00:54.421Z,70.75
2023-01-29T17:03:28.997Z,71.12
2023-01-29T17:06:03.318Z,71.17
2023-01-29T17:08:35.432Z,70.98
2023-01-29T17:11:08.457Z,70.73
2023-01-29T17:13:43.442Z,70.74
2023-01-29T17:16:33.341Z,70.54
2023-01-29T17:19:08.671Z,70.67
2023-01-29T17:21:41.775Z,70.56
2023-01-29T17:24:14.149Z,70.41
2023-01-29T17:26:46.874Z,70.28
2023-01-29T17:29:24.612Z,70.54
2023-01-29T17:31:56.686Z,70.44
2023-01-29T17:34:29.816Z,70.21
2023-01-29T17:37:02.262Z,70.12
2023-01-29T17:39:34.582Z,69.79
2023-01-29T17:42:06.965Z,69.04
2023-01-29T17:44:41.240Z,69.32
2023-01-29T17:47:15.678Z,68.99
2023-01-29T17:49:47.972Z,69.05
2023-01-29T17:52:20.074Z,69.02
2023-01-29T17:54:52.758Z,69.13
2023-01-29T17:57:25.777Z,69.58
2023-01-29T17:59:58.515Z,69.49
2023-01-29T18:02:31.058Z,68.88
2023-01-29T18:05:03.260Z,68.80
2023-01-29T18:07:35.184Z,68.61
2023-01-29T18:10:08.568Z,68.60
2023-01-29T18:12:40.584Z,68.24
2023-01-29T18:15:13.867Z,68.46
2023-01-29T18:17:46.390Z,68.07
2023-01-29T18:20:21.713Z,67.70
2023-01-29T18:22:54.812Z,67.77
2023-01-29T18:25:26.864Z,67.10
2023-01-29T18:27:59.136Z,66.92
2023-01-29T18:30:31.427Z,67.05
2023-01-29T18:33:03.570Z,67.09
2023-01-29T18:35:35.579Z,66.21
2023-01-29T18:38:08.246Z,66.30
2023-01-29T18:40:40.494Z,66.71
2023-01-29T18:43:12.636Z,66.69
2023-01-29T18:45:44.928Z,66.71
2023-01-29T18:48:16.868Z,66.53
2023-01-29T18:50:49.895Z,66.71
2023-01-29T18:53:22.308Z,66.90
2023-01-29T18:56:05.719Z,66.86
2023-01-29T18:58:38.970Z,67.15
2023-01-29T19:01:12.216Z,67.22
2023-01-29T19:03:44.821Z,66.86
2023-01-29T19:06:16.921Z,67.00
2023-01-29T19:08:49.621Z,67.40
2023-01-29T19:11:21.708Z,67.16
2023-01-29T19:13:54.929Z,66.65
2023-01-29T19:16:27.412Z,66.99
2023-01-29T19:19:00.095Z,66.94
2023-01-29T19:21:33.741Z,67.18
2023-01-29T19:24:06.525Z,67.37
2023-01-29T19:26:38.791Z,66.58
2023-01-29T19:29:10.835Z,67.01
2023-01-29T19:31:43.249Z,66.91
2023-01-29T19:34:15.259Z,66.17
2023-01-29T19:36:47.489Z,66.50
2023-01-29T19:39:19.492Z,66.69
2023-01-29T19:41:51.506Z,66.63
2023-01-29T19:44:23.574Z,66.42
2023-01-29T19:46:56.602Z,66.76
2023-01-29T19:49:28.839Z,67.06
2023-01-29T19:52:01.590Z,67.14
2023-01-29T19:54:33.856Z,66.73
2023-01-29T19:57:07.657Z,67.04
2023-01-29T19:59:39.723Z,67.41
2023-01-29T20:02:11.803Z,67.51
2023-01-29T20:04:43.802Z,67.29
2023-01-29T20:07:16.272Z,67.23
2023-01-29T20:09:52.604Z,66.90
2023-01-29T20:12:24.881Z,66.79
2023-01-29T20:14:57.018Z,66.80
2023-01-29T20:17:29.118Z,67.00
2023-01-29T20:20:04.013Z,66.96
2023-01-29T20:22:35.853Z,66.94
2023-01-29T20:25:08.365Z,66.88
2023-01-29T20:27:40.439Z,67.31
2023-01-29T20:30:13.143Z,67.68
2023-01-29T20:32:45.163Z,67.41
2023-01-29T20:35:17.632Z,67.61
2023-01-29T20:37:49.710Z,67.84
2023-01-29T20:40:21.751Z,68.23
2023-01-29T20:42:54.326Z,68.19
2023-01-29T20:45:26.432Z,68.18
2023-01-29T20:47:59.119Z,68.53
2023-01-29T20:50:31.805Z,68.62
2023-01-29T20:53:04.238Z,68.72
2023-01-29T20:55:36.447Z,68.77
2023-01-29T20:58:09.281Z,68.56
2023-01-29T21:00:41.654Z,68.54
2023-01-29T21:03:13.882Z,68.80
2023-01-29T21:05:46.498Z,68.75
2023-01-29T21:08:18.431Z,69.02
2023-01-29T21:10:52.864Z,69.42
2023-01-29T21:13:25.014Z,69.27
2023-01-29T21:15:57.120Z,69.28
2023-01-29T21:18:29.627Z,69.35
2023-01-29T21:21:01.740Z,69.02
2023-01-29T21:23:33.617Z,68.79
2023-01-29T21:26:06.897Z,68.61
2023-01-29T21:28:38.853Z,68.46
2023-01-29T21:31:14.514Z,68.16
2023-01-29T21:33:46.727Z,68.33
2023-01-29T21:36:18.836Z,68.22
2023-01-29T21:38:50.741Z,68.61
2023-01-29T21:41:24.319Z,68.61
2023-01-29T21:43:56.313Z,68.76
2023-01-29T21:46:28.507Z,68.68
2023-01-29T21:49:00.562Z,68.82
2023-01-29T21:51:32.839Z,68.92
2023-01-29T21:54:05.035Z,68.95
2023-01-29T21:56:37.156Z,69.08
2023-01-29T21:59:09.839Z,69.18
2023-01-29T22:01:42.005Z,69.32
2023-01-29T22:04:15.786Z,69.64
2023-01-29T22:06:47.747Z,69.55
2023-01-29T22:09:19.855Z,69.32
2023-01-29T22:11:51.925Z,69.29
2023-01-29T22:14:23.963Z,69.34
2023-01-29T22:16:55.889Z,69.58
2023-01-29T22:19:29.337Z,69.82
2023-01-29T22:22:01.289Z,69.95
2023-01-29T22:24:33.161Z,70.30
2023-01-29T22:27:05.167Z,70.48
2023-01-29T22:29:37.254Z,70.55
2023-01-29T22:32:09.349Z,70.23
2023-01-29T22:34:41.447Z,70.14
2023-01-29T22:37:13.576Z,69.89
2023-01-29T22:39:45.838Z,69.98
2023-01-29T22:42:21.088Z,69.88
2023-01-29T22:44:53.063Z,69.75
2023-01-29T22:47:24.958Z,69.76
2023-01-29T22:49:56.796Z,69.76
2023-01-29T22:52:28.779Z,69.79
2023-01-29T22:55:00.726Z,69.87
2023-01-29T22:57:32.894Z,69.96
2023-01-29T23:00:07.500Z,69.89
2023-01-29T23:02:39.498Z,70.04
2023-01-29T23:05:11.659Z,69.94
2023-01-29T23:07:43.659Z,70.12
2023-01-29T23:10:16.883Z,70.13
2023-01-29T23:12:49.343Z,69.73
2023-01-29T23:15:21.286Z,69.34
2023-01-29T23:17:53.389Z,69.25
2023-01-29T23:20:25.359Z,68.91
2023-01-29T23:22:57.515Z,69.18
2023-01-29T23:25:31.151Z,69.05
2023-01-29T23:28:03.247Z,69.05
2023-01-29T23:30:35.562Z,68.82
2023-01-29T23:33:07.724Z,68.87
2023-01-29T23:35:39.943Z,68.66
2023-01-29T23:38:11.878Z,68.85
2023-01-29T23:40:46.776Z,68.91
2023-01-29T23:43:20.288Z,68.87
2023-01-29T23:45:52.238Z,68.67
2023-01-29T23:48:24.763Z,68.55
2023-01-29T23:50:57.270Z,68.67
2023-01-29T23:53:29.367Z,68.74
2023-01-29T23:56:03.850Z,68.82
2023-01-29T23:58:35.920Z,68.91
